Time;durP1;ratioP1;P1;durP2;ratioP2;P2;SDS_P1;SDS_P2;PMS_P1;PMS_P2;Temp;Humidity;BMP_temperature;BMP_pressure;BME280_temperature;BME280_humidity;BME280_pressure;Samples;Min_cycle;Max_cycle;Signal;HPM_P1;HPM_P2
2022/10/03 07:28:55;;;;;;;1.93;0.20;;;11.30;99.90;;;;;;4936582;23;20323;-94
2022/10/03 07:31:56;;;;;;;1.20;0.30;;;11.40;99.90;;;;;;4932178;29;20052;-93
2022/10/03 07:51:17;;;;;;;1.15;0.30;;;12.20;99.90;;;;;;5146438;23;20457;-93
2022/10/03 07:54:58;;;;;;;0.90;0.30;;;12.00;99.90;;;;;;4961193;23;20050;31
2022/10/03 09:24:38;;;;;;;;;;;;;;;;;;;;;
2022/10/03 09:28:09;;;;;;;2.60;0.38;;;16.90;99.90;;;;;;4947458;23;20507;-91
2022/10/03 09:31:13;;;;;;;3.53;0.40;;;16.90;99.90;;;;;;4899248;29;20059;-89
2022/10/03 09:34:05;;;;;;;0.50;0.13;;;17.00;99.90;;;;;;4870022;23;20383;-90
2022/10/03 09:41:11;;;;;;;4.88;0.68;;;17.10;99.90;;;;;;4908587;29;20100;-89
2022/10/03 09:43:49;;;;;;;6.70;0.47;;;17.40;99.90;;;;;;4907116;29;20064;-92
2022/10/03 09:50:17;;;;;;;;;;;;;;;;;;;;;
2022/10/03 11:47:18;;;;;;;3.20;0.30;;;18.90;99.90;;;;;;5947693;23;20502;31
2022/10/03 12:11:58;;;;;;;1.27;0.28;;;18.80;99.90;;;;;;4919062;27;20760;-90
2022/10/03 12:14:46;;;;;;;1.30;0.22;;;18.80;99.90;;;;;;4842941;29;20065;-87
2022/10/03 12:17:23;;;;;;;2.13;0.30;;;18.90;99.90;;;;;;4847887;29;20084;-86
2022/10/03 12:20:30;;;;;;;1.48;0.28;;;18.80;99.90;;;;;;4851545;29;20096;-86
2022/10/03 12:30:18;;;;;;;2.03;0.13;;;18.60;99.90;;;;;;4790795;30;20161;-87
2022/10/03 12:32:59;;;;;;;1.90;0.20;;;18.90;99.90;;;;;;4788770;30;20552;-86
2022/10/03 12:35:50;;;;;;;4.88;0.40;;;19.00;99.90;;;;;;4792443;29;20093;-88
2022/10/03 12:38:37;;;;;;;1.38;0.20;;;19.10;99.90;;;;;;4774221;30;20067;-86
2022/10/03 12:41:23;;;;;;;3.40;0.20;;;19.10;99.90;;;;;;4788995;30;20062;-87
2022/10/03 12:44:10;;;;;;;0.82;0.17;;;19.20;99.90;;;;;;4753097;29;20569;-87
2022/10/03 12:47:03;;;;;;;1.38;0.20;;;19.20;99.90;;;;;;4773372;30;20058;-86
2022/10/03 12:49:55;;;;;;;1.60;0.20;;;19.10;99.90;;;;;;4755797;30;20064;-85
2022/10/03 12:52:38;;;;;;;1.50;0.10;;;19.20;99.90;;;;;;4802014;29;20066;-86
2022/10/03 12:55:33;;;;;;;1.17;0.10;;;19.20;99.90;;;;;;4809205;29;20058;-86
2022/10/03 12:58:37;;;;;;;1.48;0.10;;;19.30;99.90;;;;;;4832510;29;20052;-86
2022/10/03 13:05:06;;;;;;;1.42;0.20;;;19.60;99.90;;;;;;4839081;29;20084;-86
2022/10/03 13:07:56;;;;;;;0.60;0.13;;;19.80;99.90;;;;;;4827262;29;20061;-86
2022/10/03 13:10:30;;;;;;;4.55;0.30;;;19.80;99.90;;;;;;4827073;29;20054;-86
2022/10/03 13:13:22;;;;;;;1.25;0.10;;;19.80;99.90;;;;;;4848846;29;20053;-87
2022/10/03 13:16:03;;;;;;;0.47;0.10;;;19.70;99.90;;;;;;4864187;29;20057;-85
2022/10/03 13:18:51;;;;;;;0.80;0.22;;;19.60;99.90;;;;;;4869480;29;20076;-86
2022/10/03 13:21:54;;;;;;;2.55;0.35;;;19.50;99.90;;;;;;4881509;29;20536;-86
2022/10/03 13:25:13;;;;;;;1.55;0.20;;;19.60;99.90;;;;;;4897775;29;20427;-86
2022/10/03 13:28:09;;;;;;;0.77;0.10;;;19.40;99.90;;;;;;4754427;30;20056;-87
2022/10/03 13:31:08;;;;;;;2.00;0.20;;;19.40;99.90;;;;;;4755037;30;20059;-86
2022/10/03 13:33:45;;;;;;;1.95;0.30;;;19.30;99.90;;;;;;4734189;30;20123;-86
2022/10/03 13:36:43;;;;;;;1.25;0.20;;;19.20;99.90;;;;;;4719576;30;20049;-87
2022/10/03 13:39:16;;;;;;;3.45;0.20;;;19.20;99.90;;;;;;4733626;30;20511;-85
2022/10/03 13:42:36;;;;;;;2.35;0.10;;;19.10;99.90;;;;;;4744011;30;20063;-86
2022/10/03 13:45:11;;;;;;;4.45;0.30;;;19.00;99.90;;;;;;4748756;30;20665;-85
2022/10/03 13:47:54;;;;;;;1.27;0.20;;;19.10;99.90;;;;;;4737474;30;20514;-86
2022/10/03 13:50:35;;;;;;;2.80;0.25;;;19.00;99.90;;;;;;4737101;30;20526;-86
2022/10/03 13:53:28;;;;;;;1.48;0.30;;;19.10;99.90;;;;;;4751229;30;20094;-86
2022/10/03 13:56:32;;;;;;;3.17;0.20;;;19.00;99.90;;;;;;4736893;30;20149;-88
2022/10/03 13:59:25;;;;;;;0.50;0.15;;;19.00;99.90;;;;;;4732762;30;20055;-87
2022/10/03 14:02:00;;;;;;;0.77;0.13;;;18.90;99.90;;;;;;4917090;23;20107;-84
2022/10/03 14:04:34;;;;;;;2.28;0.17;;;18.90;99.90;;;;;;4929649;29;20520;-85
2022/10/03 14:07:21;;;;;;;3.00;0.22;;;19.00;99.90;;;;;;4901260;29;20486;-85
2022/10/03 14:12:44;;;;;;;0.75;0.10;;;18.90;99.90;;;;;;4941088;23;20060;-84
2022/10/03 14:15:19;;;;;;;1.48;0.40;;;18.60;99.90;;;;;;4919804;29;20051;-84
2022/10/03 14:18:00;;;;;;;3.25;0.30;;;18.60;99.90;;;;;;4936973;29;20082;-84
2022/10/03 14:20:39;;;;;;;2.85;0.30;;;18.50;99.90;;;;;;4920077;29;20138;-84
2022/10/03 14:23:15;;;;;;;2.92;0.30;;;18.40;99.90;;;;;;4936749;29;20052;-84
2022/10/03 14:25:55;;;;;;;1.02;0.10;;;18.50;99.90;;;;;;4919545;29;20130;-84
2022/10/03 14:28:50;;;;;;;2.17;0.20;;;18.30;99.90;;;;;;4936765;29;20110;-84
2022/10/03 14:31:22;;;;;;;1.20;0.10;;;18.30;99.90;;;;;;4919582;29;20063;-84
2022/10/03 14:34:02;;;;;;;2.60;0.40;;;18.20;99.90;;;;;;4919165;29;20103;-84
2022/10/03 14:36:51;;;;;;;0.45;0.10;;;18.30;99.90;;;;;;4919176;29;20087;-85
2022/10/03 14:39:20;;;;;;;0.85;0.30;;;18.10;99.90;;;;;;4919128;29;20058;-85
2022/10/03 14:42:07;;;;;;;6.63;0.50;;;18.10;99.90;;;;;;4936325;29;20118;-84
2022/10/03 14:44:43;;;;;;;1.65;0.30;;;18.10;99.90;;;;;;4936572;29;20091;-84
2022/10/03 14:47:11;;;;;;;1.38;0.20;;;18.00;99.90;;;;;;4935857;29;20141;-84
2022/10/03 14:50:28;;;;;;;;;;;;;;;;;;;;;
2022/10/03 15:05:56;;;;;;;5.05;0.30;;;17.70;99.90;;;;;;4842793;29;20060;-85
2022/10/03 15:08:24;;;;;;;1.48;1.08;;;17.80;99.90;;;;;;4860005;29;20045;-85
2022/10/03 15:10:52;;;;;;;4.00;0.70;;;17.90;99.90;;;;;;4874858;29;20407;-85
2022/10/03 15:13:21;;;;;;;3.30;0.75;;;17.80;99.90;;;;;;4875626;29;20109;-84
2022/10/03 15:15:49;;;;;;;3.15;0.47;;;17.90;99.90;;;;;;4875293;29;20380;-86
2022/10/03 15:18:20;;;;;;;2.00;0.30;;;17.70;99.90;;;;;;4860683;29;20056;-85
2022/10/03 15:20:50;;;;;;;2.85;0.35;;;17.70;99.90;;;;;;4875517;29;20053;-86
2022/10/03 15:23:24;;;;;;;2.35;0.45;;;17.70;99.90;;;;;;4875577;29;20061;-85
2022/10/03 15:26:23;;;;;;;3.63;0.73;;;17.70;99.90;;;;;;4859869;29;20136;-88
2022/10/03 15:29:23;;;;;;;3.50;0.73;;;17.60;99.90;;;;;;4892713;23;20067;-86
2022/10/03 15:31:57;;;;;;;3.05;0.82;;;17.60;99.90;;;;;;4881054;29;20060;-86
2022/10/03 15:34:40;;;;;;;3.13;0.47;;;17.60;99.90;;;;;;4871439;29;20048;-87
2022/10/03 15:37:32;;;;;;;0.40;0.10;;;17.60;99.90;;;;;;4898022;29;20052;-87
2022/10/03 15:40:19;;;;;;;0.68;0.20;;;17.40;99.90;;;;;;4897818;29;20147;-86
2022/10/03 15:43:48;;;;;;;1.35;0.50;;;17.70;99.90;;;;;;4893321;29;20099;-86
2022/10/03 15:46:38;;;;;;;3.30;0.70;;;17.20;99.90;;;;;;4882596;29;20058;-87
2022/10/03 15:49:23;;;;;;;;;;;;;;;;;;;;;
2022/10/03 15:52:05;;;;;;;2.75;0.50;;;17.10;99.90;;;;;;4897244;29;20182;-85
2022/10/03 15:57:29;;;;;;;3.40;0.30;;;17.10;99.90;;;;;;5016446;23;20063;-87
2022/10/03 16:05:42;;;;;;;;;;;;;;;;;;;;;
2022/10/03 16:12:34;;;;;;;1.10;0.40;;;16.70;99.90;;;;;;4952478;23;20080;-89
2022/10/03 16:29:50;;;;;;;1.30;0.30;;;16.40;99.90;;;;;;4882980;29;20052;-87
2022/10/03 16:32:22;;;;;;;1.92;0.50;;;16.20;99.90;;;;;;4821495;29;20062;-86
2022/10/03 16:34:51;;;;;;;2.33;0.40;;;16.20;99.90;;;;;;4820633;29;20064;-87
2022/10/03 16:37:22;;;;;;;3.33;0.43;;;16.10;99.90;;;;;;4839403;29;20053;-87
2022/10/03 16:40:14;;;;;;;;;;;;;;;;;;;;;
2022/10/03 16:42:50;;;;;;;1.58;0.32;;;16.00;99.90;;;;;;4822921;29;20061;-86
2022/10/03 16:45:47;;;;;;;1.20;0.38;;;15.90;99.90;;;;;;4823624;29;20512;-87
2022/10/03 16:52:08;;;;;;;2.78;0.35;;;15.70;99.90;;;;;;4761610;30;20244;-91
2022/10/03 16:54:39;;;;;;;1.05;0.43;;;15.50;99.90;;;;;;4880292;23;20048;-88
2022/10/03 16:57:42;;;;;;;0.70;0.30;;;15.60;99.90;;;;;;4916206;29;20115;-86
2022/10/03 17:00:53;;;;;;;;;;;;;;;;;;;;;
2022/10/03 17:04:14;;;;;;;1.42;0.32;;;15.60;99.90;;;;;;4938706;23;20056;-88
2022/10/03 17:06:47;;;;;;;0.75;0.30;;;15.20;99.90;;;;;;4919840;29;20394;-86
2022/10/03 17:09:38;;;;;;;0.75;0.20;;;15.10;99.90;;;;;;4938261;29;20111;-86
2022/10/03 17:12:32;;;;;;;0.88;0.40;;;15.00;99.90;;;;;;4920238;29;20055;-85
2022/10/03 17:15:18;;;;;;;1.17;0.40;;;14.90;99.90;;;;;;4939776;29;20392;-86
2022/10/03 17:18:04;;;;;;;0.95;0.40;;;14.80;99.90;;;;;;4950890;23;20082;-85
2022/10/03 17:20:42;;;;;;;2.60;0.50;;;14.70;99.90;;;;;;4939676;29;20048;-86
2022/10/03 17:30:43;;;;;;;0.82;0.40;;;14.40;99.90;;;;;;4968279;23;20413;-87
2022/10/03 17:33:24;;;;;;;1.40;0.50;;;14.30;99.90;;;;;;4922685;29;20056;-86
2022/10/03 17:36:42;;;;;;;;;;;;;;;;;;;;;
2022/10/03 17:39:31;;;;;;;1.90;0.32;;;14.10;99.90;;;;;;4864444;29;20061;-88
2022/10/03 17:42:07;;;;;;;1.63;0.20;;;13.80;99.90;;;;;;4879607;29;20078;-87
2022/10/03 17:44:41;;;;;;;0.85;0.22;;;13.90;99.90;;;;;;4863849;29;20060;-85
2022/10/03 17:47:21;;;;;;;2.88;0.35;;;13.80;99.90;;;;;;4879225;29;20064;-87
2022/10/03 17:49:58;;;;;;;0.73;0.17;;;13.70;99.90;;;;;;4863633;29;20088;-87
2022/10/03 17:52:25;;;;;;;2.28;0.20;;;13.60;99.90;;;;;;4863689;29;20057;-85
2022/10/03 17:55:01;;;;;;;1.10;0.17;;;13.60;99.90;;;;;;4864233;29;20077;-84
2022/10/03 17:57:35;;;;;;;2.00;0.20;;;13.50;99.90;;;;;;4879162;29;20128;-84
2022/10/03 18:00:08;;;;;;;0.85;0.22;;;13.50;99.90;;;;;;4863038;29;20141;-84
2022/10/03 18:02:44;;;;;;;1.35;0.30;;;13.40;99.90;;;;;;4878929;29;20053;-84
2022/10/03 18:05:32;;;;;;;0.30;0.20;;;13.30;99.90;;;;;;4878862;29;20052;-86
2022/10/03 18:12:34;;;;;;;0.32;0.20;;;13.20;99.90;;;;;;4878932;29;20120;-85
2022/10/03 18:15:12;;;;;;;1.50;0.30;;;13.10;99.90;;;;;;4848671;29;20140;-84
2022/10/03 18:17:58;;;;;;;2.47;0.30;;;13.00;99.90;;;;;;4863407;29;20113;-85
2022/10/03 18:21:00;;;;;;;1.65;0.20;;;13.00;99.90;;;;;;4864133;29;20100;-87
2022/10/03 18:23:57;;;;;;;0.73;0.35;;;13.00;99.90;;;;;;4834733;29;20058;-85
2022/10/03 18:26:31;;;;;;;1.80;0.30;;;12.80;99.90;;;;;;4806351;29;20084;-85
2022/10/03 18:29:12;;;;;;;1.35;0.38;;;12.80;99.90;;;;;;4807730;29;20115;-85
2022/10/03 18:31:45;;;;;;;1.55;0.40;;;12.70;99.90;;;;;;4823374;29;20093;-85
2022/10/03 18:34:38;;;;;;;0.60;0.20;;;12.60;99.90;;;;;;4822155;29;20050;-89
2022/10/03 18:37:39;;;;;;;0.60;0.30;;;12.60;99.90;;;;;;4785345;30;20528;-85
2022/10/03 18:40:18;;;;;;;3.03;0.30;;;12.60;99.90;;;;;;4754023;30;20063;-86
2022/10/03 18:42:49;;;;;;;0.50;0.20;;;12.50;99.90;;;;;;4753741;30;20112;-87
2022/10/03 18:45:20;;;;;;;0.20;0.20;;;12.50;99.90;;;;;;4754196;30;20161;-85
2022/10/03 18:47:53;;;;;;;2.17;0.75;;;12.50;99.90;;;;;;4764681;30;20069;-86
2022/10/03 18:50:39;;;;;;;0.30;0.20;;;12.40;99.90;;;;;;4786257;30;20536;-85
2022/10/03 18:53:50;;;;;;;0.20;0.13;;;12.40;99.90;;;;;;4718555;30;20134;-88
2022/10/03 18:56:25;;;;;;;0.20;0.20;;;12.30;99.90;;;;;;4686684;30;20113;-85
2022/10/03 18:59:06;;;;;;;0.05;0.05;;;12.30;99.90;;;;;;4744263;30;20059;-86
2022/10/03 19:01:51;;;;;;;0.40;0.20;;;12.20;99.90;;;;;;4747821;30;20056;-86
2022/10/03 19:04:39;;;;;;;0.25;0.20;;;12.20;99.90;;;;;;4762194;30;20060;-89
2022/10/03 19:07:31;;;;;;;1.02;0.30;;;12.60;99.90;;;;;;4714186;30;20151;-85
2022/10/03 19:10:15;;;;;;;2.53;0.40;;;12.00;99.90;;;;;;4649688;30;20129;-85
2022/10/03 19:12:52;;;;;;;1.42;0.40;;;11.90;99.90;;;;;;4663522;30;20066;-84
2022/10/03 19:15:21;;;;;;;1.67;0.30;;;11.90;99.90;;;;;;4665847;30;20062;-84
2022/10/03 19:18:07;;;;;;;0.98;0.30;;;11.80;99.90;;;;;;4690432;30;20560;-84
2022/10/03 19:20:38;;;;;;;1.65;0.43;;;11.80;99.90;;;;;;4680694;30;20069;-84
2022/10/03 19:23:04;;;;;;;0.38;0.30;;;11.80;99.90;;;;;;4680756;30;20393;-85
2022/10/03 19:25:32;;;;;;;0.70;0.22;;;11.80;99.90;;;;;;4679187;30;20066;-84
2022/10/03 19:28:04;;;;;;;1.05;0.30;;;11.70;99.90;;;;;;4687080;30;20063;-85
2022/10/03 19:30:31;;;;;;;0.60;0.15;;;11.70;99.90;;;;;;4700562;30;20061;-86
2022/10/03 19:33:29;;;;;;;1.00;0.32;;;11.60;99.90;;;;;;4782107;29;20513;-84
2022/10/03 19:36:03;;;;;;;0.57;0.30;;;11.60;99.90;;;;;;4749780;30;20064;-84
2022/10/03 19:38:38;;;;;;;0.60;0.30;;;11.60;99.90;;;;;;4734683;30;20603;-85
2022/10/03 19:41:26;;;;;;;0.55;0.35;;;11.60;99.90;;;;;;4749963;30;20056;-84
2022/10/03 19:43:54;;;;;;;1.02;0.30;;;11.50;99.90;;;;;;4741930;30;20071;-84
2022/10/03 19:46:41;;;;;;;0.65;0.30;;;11.90;99.90;;;;;;4762608;29;20062;-83
2022/10/03 19:49:30;;;;;;;0.82;0.30;;;11.50;99.90;;;;;;4787002;29;20113;-83
2022/10/03 19:52:14;;;;;;;1.27;0.32;;;11.40;99.90;;;;;;4785608;29;20059;-84
2022/10/03 19:54:49;;;;;;;0.60;0.35;;;11.40;99.90;;;;;;4784717;29;20058;-86
2022/10/03 19:57:18;;;;;;;1.02;0.40;;;11.30;99.90;;;;;;4788955;29;20098;-84
2022/10/03 19:59:51;;;;;;;0.50;0.40;;;11.70;99.90;;;;;;4802947;29;20051;-84
2022/10/03 20:02:24;;;;;;;2.80;0.30;;;11.30;99.90;;;;;;4787970;29;20075;-85
2022/10/03 20:04:52;;;;;;;0.35;0.30;;;11.30;99.90;;;;;;4803523;29;20051;-84
2022/10/03 20:07:32;;;;;;;0.60;0.50;;;11.30;99.90;;;;;;4803678;29;20061;-85
2022/10/03 20:10:11;;;;;;;0.70;0.40;;;11.30;99.90;;;;;;4788074;29;20084;-85
2022/10/03 20:12:41;;;;;;;1.05;0.40;;;11.30;99.90;;;;;;4846973;29;20101;-86
2022/10/03 20:15:26;;;;;;;0.93;0.40;;;11.20;99.90;;;;;;4891178;29;20067;-86
2022/10/03 20:18:01;;;;;;;1.67;0.50;;;11.60;99.90;;;;;;4880877;29;20109;-86
2022/10/03 20:20:29;;;;;;;0.63;0.40;;;11.30;99.90;;;;;;4879980;29;20068;-84
2022/10/03 20:23:03;;;;;;;1.08;0.63;;;11.90;99.90;;;;;;4886623;29;20061;-86
2022/10/03 20:25:39;;;;;;;1.17;0.90;;;11.20;99.90;;;;;;4894278;29;20064;-85
2022/10/03 20:28:14;;;;;;;0.45;0.45;;;11.20;99.90;;;;;;4896045;29;20741;-85
2022/10/03 20:30:46;;;;;;;1.23;0.57;;;11.20;99.90;;;;;;4930252;29;20134;-85
2022/10/03 20:33:17;;;;;;;1.55;0.52;;;11.20;99.90;;;;;;4916899;29;20489;-86
2022/10/03 20:35:50;;;;;;;0.57;0.40;;;11.20;99.90;;;;;;4918262;29;20063;-85
2022/10/03 20:38:28;;;;;;;1.38;0.43;;;11.20;99.90;;;;;;4918275;29;20071;-84
2022/10/03 20:41:04;;;;;;;1.13;0.50;;;11.20;99.90;;;;;;4917238;29;20055;-85
2022/10/03 20:44:07;;;;;;;2.58;0.63;;;11.20;99.90;;;;;;4916844;29;20405;-85
2022/10/03 20:46:44;;;;;;;2.13;0.52;;;11.20;99.90;;;;;;4935234;29;20134;-85
2022/10/03 20:49:13;;;;;;;1.27;0.60;;;11.20;99.90;;;;;;4920970;29;20099;-85
2022/10/03 20:51:54;;;;;;;1.67;0.70;;;11.20;99.90;;;;;;4920559;29;20063;-85
2022/10/03 20:54:42;;;;;;;1.95;0.70;;;11.20;99.90;;;;;;4937170;29;20111;-86
2022/10/03 20:57:13;;;;;;;3.08;0.80;;;11.20;99.90;;;;;;4861333;29;20061;-85
2022/10/03 20:59:53;;;;;;;1.48;0.70;;;11.20;99.90;;;;;;4861489;29;20571;-85
2022/10/03 21:02:24;;;;;;;1.40;1.00;;;11.20;99.90;;;;;;4838868;29;20058;-85
2022/10/03 21:05:14;;;;;;;1.30;0.73;;;11.90;99.90;;;;;;4828566;29;20062;-86
2022/10/03 21:07:46;;;;;;;1.88;0.80;;;11.20;99.90;;;;;;4843002;29;20058;-85
2022/10/03 21:10:24;;;;;;;2.08;0.57;;;11.20;99.90;;;;;;4827438;29;20093;-85
2022/10/03 21:12:54;;;;;;;1.02;0.55;;;11.30;99.90;;;;;;4833919;29;20057;-84
2022/10/03 21:15:41;;;;;;;1.08;0.57;;;11.30;99.90;;;;;;4859289;29;20114;-85
2022/10/03 21:18:33;;;;;;;1.92;0.70;;;11.30;99.90;;;;;;4845565;29;20065;-86
2022/10/03 21:21:31;;;;;;;1.27;0.70;;;11.30;99.90;;;;;;4845635;29;20076;-84
2022/10/03 21:24:05;;;;;;;3.45;0.70;;;11.30;99.90;;;;;;4851696;29;20069;-85
2022/10/03 21:26:40;;;;;;;2.08;1.13;;;11.40;99.90;;;;;;4827626;29;20132;-85
2022/10/03 21:29:24;;;;;;;3.10;0.60;;;11.40;99.90;;;;;;4826908;29;20053;-86
2022/10/03 21:31:55;;;;;;;1.23;0.52;;;11.50;99.90;;;;;;4827513;29;20455;-86
2022/10/03 21:34:36;;;;;;;2.20;0.80;;;11.60;99.90;;;;;;4872439;29;20064;-85
2022/10/03 21:37:20;;;;;;;1.48;0.50;;;11.50;99.90;;;;;;4916035;29;20155;-86
2022/10/03 21:40:05;;;;;;;2.15;0.50;;;11.60;99.90;;;;;;4918105;29;20402;-86
2022/10/03 21:43:07;;;;;;;1.88;0.50;;;11.60;99.90;;;;;;4902187;29;20193;-86
2022/10/03 21:46:03;;;;;;;1.50;0.50;;;11.60;99.90;;;;;;4917887;29;20048;-86
2022/10/03 21:48:48;;;;;;;2.40;0.63;;;11.70;99.90;;;;;;4917713;29;20067;-85
2022/10/03 21:51:27;;;;;;;1.58;0.80;;;11.70;99.90;;;;;;4918320;29;20139;-85
2022/10/03 21:54:21;;;;;;;1.25;0.70;;;11.60;99.90;;;;;;4919601;29;20527;-86
2022/10/03 21:57:25;;;;;;;0.77;0.60;;;11.70;99.90;;;;;;4915835;29;20058;-86
2022/10/03 22:00:01;;;;;;;1.85;0.50;;;11.70;99.90;;;;;;4880080;29;20057;-85
2022/10/03 22:02:48;;;;;;;1.95;0.63;;;11.70;99.90;;;;;;4896863;29;20333;-86
2022/10/03 22:05:37;;;;;;;1.17;0.60;;;11.70;99.90;;;;;;4882213;29;20052;-86
2022/10/03 22:08:23;;;;;;;2.38;0.80;;;11.60;99.90;;;;;;4896025;29;20131;-87
2022/10/03 22:11:01;;;;;;;1.40;0.70;;;11.60;99.90;;;;;;4897670;29;20052;-87
2022/10/03 22:13:33;;;;;;;2.10;0.73;;;11.60;99.90;;;;;;4867500;29;20056;-85
2022/10/03 22:16:13;;;;;;;8.95;0.90;;;11.60;99.90;;;;;;4897893;29;20044;-85
2022/10/03 22:18:54;;;;;;;3.33;0.70;;;11.70;99.90;;;;;;4881321;29;20196;-85
2022/10/03 22:21:26;;;;;;;3.25;1.00;;;11.60;99.90;;;;;;4882971;29;20057;-86
2022/10/03 22:24:06;;;;;;;1.52;0.80;;;11.70;99.90;;;;;;4882295;29;20057;-85
2022/10/03 22:26:43;;;;;;;1.75;0.60;;;11.50;99.90;;;;;;4906360;29;20059;-86
2022/10/03 22:29:11;;;;;;;1.75;0.80;;;11.60;99.90;;;;;;4885414;29;20084;-85
2022/10/03 22:31:52;;;;;;;2.67;0.80;;;11.60;99.90;;;;;;4901433;29;20152;-87
2022/10/03 22:34:20;;;;;;;2.63;0.80;;;11.60;99.90;;;;;;4884284;29;20068;-86
2022/10/03 22:36:46;;;;;;;4.10;0.95;;;11.50;99.90;;;;;;4888491;29;20061;-85
2022/10/03 22:39:16;;;;;;;1.02;0.90;;;11.70;99.90;;;;;;4900461;29;20049;-85
2022/10/03 22:41:45;;;;;;;2.55;0.90;;;11.60;99.90;;;;;;4899467;29;20530;-86
2022/10/03 22:44:13;;;;;;;2.83;1.33;;;11.40;99.90;;;;;;4899604;29;20110;-86
2022/10/03 22:46:43;;;;;;;2.58;0.73;;;11.70;99.90;;;;;;4898440;29;20071;-86
2022/10/03 22:49:18;;;;;;;2.00;0.73;;;11.60;99.90;;;;;;4899801;29;20063;-85
2022/10/03 22:51:46;;;;;;;;;;;11.70;99.90;;;;;;4900754;29;20193;-86
2022/10/03 22:54:15;;;;;;;1.85;0.80;;;11.70;99.90;;;;;;4898492;29;19930;-86
2022/10/03 22:56:47;;;;;;;1.20;0.80;;;11.70;99.90;;;;;;4898560;29;20459;-85
2022/10/03 22:59:21;;;;;;;2.15;0.90;;;11.70;99.90;;;;;;4901505;29;20056;-85
2022/10/03 23:01:50;;;;;;;2.35;1.00;;;11.70;99.90;;;;;;4915935;29;20438;-86
2022/10/03 23:04:28;;;;;;;2.03;0.88;;;11.70;99.90;;;;;;4916144;29;20064;-85
2022/10/03 23:07:14;;;;;;;2.03;0.90;;;11.60;99.90;;;;;;4916079;29;20115;-85
2022/10/03 23:09:51;;;;;;;3.08;0.93;;;11.60;99.90;;;;;;4917202;29;20048;-85
2022/10/03 23:12:20;;;;;;;1.20;0.80;;;11.60;99.90;;;;;;4913940;29;20425;-84
2022/10/03 23:14:50;;;;;;;1.35;0.85;;;11.60;99.90;;;;;;4916635;29;20059;-86
2022/10/03 23:17:45;;;;;;;2.35;0.80;;;11.60;99.90;;;;;;4909220;29;20060;-85
2022/10/03 23:20:33;;;;;;;1.75;0.70;;;11.60;99.90;;;;;;4913372;29;20119;-84
2022/10/03 23:23:04;;;;;;;2.72;0.85;;;11.60;99.90;;;;;;4914017;29;20067;-86
2022/10/03 23:25:49;;;;;;;1.83;0.70;;;11.60;99.90;;;;;;4915607;29;20056;-85
2022/10/03 23:28:29;;;;;;;1.40;0.70;;;11.60;99.90;;;;;;4915644;29;20067;-84
2022/10/03 23:30:55;;;;;;;1.08;0.65;;;11.60;99.90;;;;;;4935617;29;20056;-85
2022/10/03 23:33:31;;;;;;;2.25;0.65;;;11.60;99.90;;;;;;4916610;29;20527;-85
2022/10/03 23:36:02;;;;;;;;;;;11.60;99.90;;;;;;4936392;29;20479;-86
2022/10/03 23:38:30;;;;;;;1.52;0.90;;;11.70;99.90;;;;;;4918880;29;19946;-85
2022/10/03 23:40:59;;;;;;;3.10;0.80;;;12.40;99.90;;;;;;4935862;29;20054;-84
2022/10/03 23:43:36;;;;;;;1.98;0.80;;;11.70;99.90;;;;;;4934338;29;20059;-85
2022/10/03 23:46:14;;;;;;;3.40;0.90;;;11.70;99.90;;;;;;4935388;29;20051;-85
2022/10/03 23:49:00;;;;;;;4.72;0.70;;;11.70;99.90;;;;;;4900366;29;20052;-85
2022/10/03 23:51:35;;;;;;;3.08;0.90;;;11.60;99.90;;;;;;4900059;29;20056;-85
2022/10/03 23:54:09;;;;;;;1.45;0.70;;;11.60;99.90;;;;;;4900890;29;20131;-84
2022/10/03 23:56:44;;;;;;;3.58;0.88;;;11.90;99.90;;;;;;4899800;29;20160;-85
2022/10/03 23:59:13;;;;;;;0.97;0.53;;;11.60;99.90;;;;;;4916720;29;20092;-85
